Search for airport 
image banner adimage banner adimage banner ad
image banner ad

N71 - Donegal Springs Airpark

Located in Mount Joy/Marietta, United States

ICAO - N71, IATA -

Data provided by Airmate  

General information

Coordinates: N40°5'32" W76°34'28"
Elevation is 458 feet MSL.
Magnetic variation is -09° East
View others Airports in Pennsylvania

Operational data

Special qualification required
Current time UTC:
Current local time:
Weather at : KMDT - Harrisburg Intl ( 20 km )
METAR: KMDT 061256Z 34009KT 10SM BKN042 12/01 A3004 RMK AO2 SLP175 T01220011 PNO $
TAF: KMDT 061130Z 0612/0712 32008KT P6SM SCT040 FM061500 31010G20KT P6SM SCT040 FM070300 07007KT P6SM SCT100 BKN250
View NOTAMs / SUP AIP / TFR affecting this airport [VIEW]
Communications frequencies: [VIEW]

Runways:

RWY identifierQFULength (ft)Width (ft)SurfaceLDA (ft)
1085°325050ASPH
28265°325050ASPH

Airport contact information

Address: Mount Joy/Marietta United States

Satellite view of N71